createdAt,value
2018-10-18T00:02:22.329Z,9
2018-10-18T00:07:24.763Z,9
2018-10-18T00:12:27.202Z,8.9
2018-10-18T00:17:29.625Z,8.8
2018-10-18T00:22:32.080Z,8.8
2018-10-18T00:27:34.503Z,8.7
2018-10-18T00:32:36.954Z,8.7
2018-10-18T00:37:39.394Z,8.6
2018-10-18T00:42:41.884Z,8.6
2018-10-18T00:47:44.273Z,8.5
2018-10-18T00:52:46.769Z,8.5
2018-10-18T00:57:49.143Z,8.4
2018-10-18T01:02:51.607Z,8.4
2018-10-18T01:07:54.078Z,8.3
2018-10-18T01:12:56.497Z,8.3
2018-10-18T01:17:58.991Z,8.3
2018-10-18T01:23:01.363Z,8.3
2018-10-18T01:28:03.796Z,8.3
2018-10-18T01:33:06.230Z,8.2
2018-10-18T01:38:08.730Z,8.2
2018-10-18T01:43:11.114Z,8.2
2018-10-18T01:48:13.648Z,8.1
2018-10-18T01:53:16.069Z,8
2018-10-18T01:58:18.438Z,7.9
2018-10-18T02:03:20.865Z,7.9
2018-10-18T02:08:23.322Z,7.9
2018-10-18T02:13:25.818Z,7.8
2018-10-18T02:18:28.208Z,7.8
2018-10-18T02:23:30.686Z,7.8
2018-10-18T02:28:33.075Z,7.8
2018-10-18T02:33:35.516Z,7.8
2018-10-18T02:38:37.964Z,7.7
2018-10-18T02:43:40.398Z,7.7
2018-10-18T02:48:42.853Z,7.6
2018-10-18T02:53:45.293Z,7.6
2018-10-18T02:58:47.728Z,7.5
2018-10-18T03:03:50.160Z,7.5
2018-10-18T03:09:02.616Z,7.5
2018-10-18T03:13:55.042Z,7.4
2018-10-18T03:18:57.487Z,7.3
2018-10-18T03:23:59.931Z,7.3
2018-10-18T03:29:02.372Z,7.3
2018-10-18T03:34:04.830Z,7.3
2018-10-18T03:39:07.261Z,7.2
2018-10-18T03:44:09.690Z,7.2
2018-10-18T03:49:12.123Z,7.2
2018-10-18T03:54:14.689Z,7.1
2018-10-18T03:59:17.243Z,7.1
2018-10-18T04:04:19.528Z,7.1
2018-10-18T04:09:26.927Z,7.1
2018-10-18T04:14:29.401Z,7
2018-10-18T04:19:26.771Z,7
2018-10-18T04:24:29.315Z,7
2018-10-18T04:34:34.248Z,6.9
2018-10-18T04:39:36.644Z,7
2018-10-18T04:44:38.970Z,7
2018-10-18T04:49:41.414Z,6.9
2018-10-18T04:54:43.868Z,6.9
2018-10-18T05:04:48.752Z,6.8
2018-10-18T05:09:51.165Z,6.8
2018-10-18T05:14:53.602Z,6.7
2018-10-18T05:19:56.039Z,6.7
2018-10-18T05:24:58.541Z,6.6
2018-10-18T05:30:00.936Z,6.6
2018-10-18T05:35:03.399Z,6.6
2018-10-18T05:40:05.806Z,6.5
2018-10-18T05:45:08.262Z,6.6
2018-10-18T05:50:10.697Z,6.6
2018-10-18T05:55:13.275Z,6.6
2018-10-18T06:00:15.621Z,6.6
2018-10-18T06:05:18.036Z,6.6
2018-10-18T06:10:25.599Z,6.6
2018-10-18T06:15:22.911Z,6.6
2018-10-18T06:20:25.355Z,6.6
2018-10-18T06:25:27.780Z,6.6
2018-10-18T06:30:30.225Z,6.7
2018-10-18T06:35:32.716Z,6.7
2018-10-18T06:40:35.096Z,6.8
2018-10-18T06:45:37.559Z,6.8
2018-10-18T06:50:40.076Z,6.9
2018-10-18T06:55:42.431Z,7.1
2018-10-18T07:00:44.893Z,7.2
2018-10-18T07:05:47.319Z,7.3
2018-10-18T07:10:49.796Z,7.5
2018-10-18T07:15:52.178Z,7.6
2018-10-18T07:20:54.638Z,7.7
2018-10-18T07:25:57.179Z,7.8
2018-10-18T07:30:59.511Z,8
2018-10-18T07:36:02.165Z,8
2018-10-18T07:41:04.393Z,8.2
2018-10-18T07:46:06.831Z,8.3
2018-10-18T07:51:09.582Z,8.5
2018-10-18T08:01:14.227Z,8.9
2018-10-18T08:06:16.609Z,9.1
2018-10-18T08:11:19.072Z,9.4
2018-10-18T08:16:21.463Z,9.8
2018-10-18T08:21:23.923Z,10.2
2018-10-18T08:26:26.372Z,10.5
2018-10-18T08:31:28.971Z,10.8
2018-10-18T08:36:31.433Z,11
2018-10-18T08:41:33.679Z,11.3
2018-10-18T08:46:36.138Z,11.6
2018-10-18T08:51:38.620Z,11.8
2018-10-18T08:56:40.994Z,11.9
2018-10-18T09:01:43.524Z,11.8
2018-10-18T09:06:45.876Z,11.8
2018-10-18T09:11:48.315Z,11.7
2018-10-18T09:16:50.768Z,11.6
2018-10-18T09:21:53.216Z,11.5
2018-10-18T09:26:55.642Z,11.7
2018-10-18T09:31:58.128Z,12
2018-10-18T09:37:00.536Z,12.2
2018-10-18T09:42:02.964Z,12.3
2018-10-18T09:47:05.402Z,12.5
2018-10-18T09:52:07.879Z,12.7
2018-10-18T09:57:10.278Z,12.8
2018-10-18T10:02:12.730Z,13
2018-10-18T10:07:15.278Z,13.2
2018-10-18T10:12:17.618Z,13.5
2018-10-18T10:17:20.102Z,13.8
2018-10-18T10:22:22.479Z,14
2018-10-18T10:27:24.936Z,14.3
2018-10-18T10:32:27.370Z,14.5
2018-10-18T10:37:29.830Z,14.7
2018-10-18T10:42:32.323Z,14.8
2018-10-18T10:47:34.675Z,15
2018-10-18T10:52:37.143Z,15.2
2018-10-18T10:57:39.570Z,15.4
2018-10-18T11:02:42.039Z,15.9
2018-10-18T11:07:44.489Z,16.8
2018-10-18T11:12:47.195Z,17.6
2018-10-18T11:17:49.324Z,18.1
2018-10-18T11:22:51.828Z,18.6
2018-10-18T11:27:54.213Z,19.2
2018-10-18T11:32:56.709Z,19.8
2018-10-18T11:37:59.140Z,20.5
2018-10-18T11:43:01.645Z,20.9
2018-10-18T11:48:04.012Z,21.1
2018-10-18T11:53:06.407Z,21.3
2018-10-18T11:58:08.881Z,21.6
2018-10-18T12:03:11.303Z,22.1
2018-10-18T12:08:13.883Z,22.8
2018-10-18T12:13:16.282Z,23
2018-10-18T12:18:18.620Z,22.9
2018-10-18T12:23:21.078Z,22.9
2018-10-18T12:28:23.546Z,22.9
2018-10-18T12:33:25.947Z,23.2
2018-10-18T12:38:28.669Z,22.9
2018-10-18T12:43:30.832Z,22.6
2018-10-18T12:48:33.310Z,21.9
2018-10-18T12:53:35.746Z,20.7
2018-10-18T12:58:38.158Z,21.3
2018-10-18T13:03:40.599Z,22
2018-10-18T13:08:43.075Z,21.7
2018-10-18T13:13:45.497Z,21
2018-10-18T13:18:47.987Z,21.3
2018-10-18T13:23:50.380Z,0
2018-10-18T13:28:52.803Z,19.2
2018-10-18T13:33:55.259Z,19.3
2018-10-18T13:38:57.698Z,20.3
2018-10-18T13:44:00.181Z,20.8
2018-10-18T13:49:02.603Z,20.9
2018-10-18T13:54:05.152Z,20.3
2018-10-18T13:59:07.576Z,20.6
2018-10-18T14:04:09.912Z,20.3
2018-10-18T14:09:12.336Z,19.8
2018-10-18T14:14:14.874Z,19.6
2018-10-18T14:19:17.252Z,19.6
2018-10-18T14:24:19.700Z,19.6
2018-10-18T14:29:22.094Z,19.2
2018-10-18T14:34:24.565Z,18.7
2018-10-18T14:39:27.110Z,18.2
2018-10-18T14:44:29.633Z,17.7
2018-10-18T14:49:31.903Z,17.2
2018-10-18T14:54:34.328Z,16.7
2018-10-18T14:59:36.742Z,16.5
2018-10-18T15:04:39.255Z,16.1
2018-10-18T15:09:41.625Z,15.7
2018-10-18T15:14:44.066Z,15.4
2018-10-18T15:19:46.501Z,15.1
2018-10-18T15:24:48.944Z,14.8
2018-10-18T15:29:51.475Z,14.6
2018-10-18T15:34:53.878Z,14.3
2018-10-18T15:39:56.263Z,14
2018-10-18T15:44:58.737Z,13.7
2018-10-18T15:50:01.162Z,13.5
2018-10-18T15:55:03.605Z,13.3
2018-10-18T16:00:06.204Z,13.1
2018-10-18T16:05:08.577Z,12.9
2018-10-18T16:10:10.922Z,12.8
2018-10-18T16:15:13.357Z,12.7
2018-10-18T16:20:15.875Z,12.6
2018-10-18T16:25:18.228Z,12.6
2018-10-18T16:30:20.699Z,12.6
2018-10-18T16:35:23.117Z,12.6
2018-10-18T16:40:25.677Z,12.6
2018-10-18T16:45:27.995Z,12.5
2018-10-18T16:50:30.476Z,12.5
2018-10-18T16:55:32.874Z,12.5
2018-10-18T17:00:35.323Z,12.4
2018-10-18T17:05:37.759Z,12.4
2018-10-18T17:10:40.197Z,12.4
2018-10-18T17:15:42.643Z,12.3
2018-10-18T17:20:45.460Z,12.3
2018-10-18T17:25:47.578Z,12.2
2018-10-18T17:30:50.016Z,12.2
2018-10-18T17:35:52.416Z,12.2
2018-10-18T17:40:54.837Z,12.2
2018-10-18T17:45:57.330Z,12.1
2018-10-18T17:50:59.718Z,12.1
2018-10-18T17:56:02.338Z,12.1
2018-10-18T18:01:04.610Z,12.1
2018-10-18T18:06:07.077Z,12.1
2018-10-18T18:11:09.474Z,12.1
2018-10-18T18:16:12.012Z,12.1
2018-10-18T18:21:14.494Z,12
2018-10-18T18:26:16.826Z,12
2018-10-18T18:31:19.246Z,11.9
2018-10-18T18:36:21.781Z,11.9
2018-10-18T18:41:24.117Z,11.8
2018-10-18T18:46:26.565Z,11.8
2018-10-18T18:51:29.047Z,11.8
2018-10-18T18:56:31.440Z,11.7
2018-10-18T19:01:33.880Z,11.7
2018-10-18T19:06:36.315Z,11.7
2018-10-18T19:11:38.772Z,11.7
2018-10-18T19:16:41.204Z,11.7
2018-10-18T19:21:43.652Z,11.7
2018-10-18T19:26:46.167Z,11.7
2018-10-18T19:31:48.535Z,11.7
2018-10-18T19:36:50.955Z,11.7
2018-10-18T19:41:53.414Z,11.7
2018-10-18T19:46:55.874Z,11.7
2018-10-18T19:51:58.319Z,11.7
2018-10-18T19:57:00.841Z,11.7
2018-10-18T20:02:03.203Z,11.7
2018-10-18T20:07:05.627Z,11.7
2018-10-18T20:12:08.112Z,11.7
2018-10-18T20:17:10.507Z,11.6
2018-10-18T20:22:12.928Z,11.6
2018-10-18T20:27:15.375Z,11.6
2018-10-18T20:32:17.845Z,11.6
2018-10-18T20:37:20.246Z,11.6
2018-10-18T20:42:22.710Z,11.6
2018-10-18T20:47:25.361Z,11.6
2018-10-18T20:52:27.616Z,11.6
2018-10-18T20:57:30.036Z,11.6
2018-10-18T21:02:32.439Z,11.6
2018-10-18T21:07:34.901Z,11.6
2018-10-18T21:12:37.339Z,11.6
2018-10-18T21:17:39.768Z,11.6
2018-10-18T21:22:42.213Z,11.5
2018-10-18T21:27:44.728Z,11.5
2018-10-18T21:32:47.087Z,11.5
2018-10-18T21:37:49.524Z,11.5
2018-10-18T21:42:51.955Z,11.5
2018-10-18T21:47:54.427Z,11.5
2018-10-18T21:52:56.994Z,11.6
2018-10-18T21:57:59.292Z,11.6
2018-10-18T22:03:01.890Z,11.6
2018-10-18T22:08:04.164Z,11.6
2018-10-18T22:13:06.602Z,11.6
2018-10-18T22:18:09.102Z,11.6
2018-10-18T22:23:11.527Z,11.6
2018-10-18T22:28:13.990Z,11.6
2018-10-18T22:33:16.443Z,11.5
2018-10-18T22:38:18.823Z,11.6
2018-10-18T22:43:21.303Z,11.5
2018-10-18T22:48:23.686Z,11.5
2018-10-18T22:53:26.141Z,11.6
2018-10-18T22:58:28.598Z,11.6
2018-10-18T23:03:31.011Z,11.6
2018-10-18T23:08:33.567Z,11.5
2018-10-18T23:13:35.899Z,11.6
2018-10-18T23:18:38.348Z,11.5
2018-10-18T23:23:40.789Z,11.5
2018-10-18T23:28:43.216Z,11.6
2018-10-18T23:33:45.780Z,11.6
2018-10-18T23:38:48.093Z,11.6
2018-10-18T23:43:50.526Z,11.6
2018-10-18T23:48:52.964Z,11.6
2018-10-18T23:53:55.463Z,11.6
2018-10-18T23:58:57.935Z,11.5
